createdAt,value
2023-03-31T00:00:58.539Z,3.50
2023-03-31T00:03:26.460Z,3.05
2023-03-31T00:05:59.100Z,3.95
2023-03-31T00:08:31.495Z,1.33
2023-03-31T00:11:00.802Z,3.50
2023-03-31T00:13:28.469Z,2.97
2023-03-31T00:16:00.251Z,3.08
2023-03-31T00:18:27.830Z,1.88
2023-03-31T00:20:56.130Z,2.80
2023-03-31T00:23:28.479Z,2.15
2023-03-31T00:25:56.545Z,3.50
2023-03-31T00:28:24.040Z,5.75
2023-03-31T00:30:52.709Z,3.72
2023-03-31T00:33:20.268Z,2.80
2023-03-31T00:35:55.561Z,5.53
2023-03-31T00:38:29.900Z,1.70
2023-03-31T00:41:00.710Z,1.27
2023-03-31T00:43:33.208Z,4.03
2023-03-31T00:46:16.045Z,3.90
2023-03-31T00:48:54.732Z,2.20
2023-03-31T00:51:23.871Z,2.53
2023-03-31T00:53:56.117Z,17.00
2023-03-31T00:56:23.820Z,2.97
2023-03-31T00:58:51.464Z,1.73
2023-03-31T01:01:21.552Z,2.67
2023-03-31T01:03:49.212Z,3.92
2023-03-31T01:06:20.632Z,2.03
2023-03-31T01:08:50.811Z,5.40
2023-03-31T01:11:20.686Z,2.83
2023-03-31T01:13:52.324Z,3.50
2023-03-31T01:16:20.269Z,1.58
2023-03-31T01:18:50.263Z,3.35
2023-03-31T01:21:32.834Z,2.60
2023-03-31T01:24:00.551Z,5.07
2023-03-31T01:26:43.217Z,4.85
2023-03-31T01:29:13.551Z,3.27
2023-03-31T01:31:53.479Z,5.03
2023-03-31T01:34:39.368Z,4.10
2023-03-31T01:37:25.953Z,5.28
2023-03-31T01:40:11.822Z,2.78
2023-03-31T01:42:43.804Z,2.33
2023-03-31T01:45:17.506Z,5.82
2023-03-31T01:47:53.505Z,3.92
2023-03-31T01:50:25.030Z,3.55
2023-03-31T01:53:08.418Z,7.38
2023-03-31T01:55:42.381Z,2.33
2023-03-31T01:58:24.224Z,2.58
2023-03-31T02:01:04.510Z,3.40
2023-03-31T02:03:38.760Z,4.15
2023-03-31T02:06:15.442Z,4.47
2023-03-31T02:08:45.286Z,3.55
2023-03-31T02:11:14.541Z,4.90
2023-03-31T02:13:45.463Z,4.57
2023-03-31T02:16:15.138Z,7.60
2023-03-31T02:18:43.459Z,5.20
2023-03-31T02:21:12.466Z,3.88
2023-03-31T02:23:40.588Z,2.00
2023-03-31T02:26:10.971Z,2.90
2023-03-31T02:28:38.852Z,3.63
2023-03-31T02:31:27.964Z,6.55
2023-03-31T02:33:55.679Z,4.30
2023-03-31T02:36:23.531Z,4.10
2023-03-31T02:39:04.240Z,6.43
2023-03-31T02:41:31.871Z,4.47
2023-03-31T02:43:59.762Z,3.83
2023-03-31T02:46:28.360Z,4.50
2023-03-31T02:48:59.361Z,4.78
2023-03-31T02:51:29.918Z,2.90
2023-03-31T02:53:57.367Z,3.05
2023-03-31T02:56:28.190Z,5.25
2023-03-31T02:59:07.919Z,4.25
2023-03-31T03:01:44.801Z,2.70
2023-03-31T03:04:20.991Z,6.45
2023-03-31T03:07:09.906Z,5.07
2023-03-31T03:09:37.743Z,4.22
2023-03-31T03:12:08.383Z,4.35
2023-03-31T03:14:39.181Z,4.78
2023-03-31T03:17:24.837Z,4.95
2023-03-31T03:19:54.627Z,6.53
2023-03-31T03:22:22.700Z,5.20
2023-03-31T03:24:50.366Z,4.53
2023-03-31T03:27:18.264Z,6.68
2023-03-31T03:29:45.752Z,4.20
2023-03-31T03:32:13.411Z,7.65
2023-03-31T03:34:41.264Z,6.93
2023-03-31T03:37:08.929Z,4.05
2023-03-31T03:39:36.608Z,6.85
2023-03-31T03:42:04.391Z,6.20
2023-03-31T03:44:31.929Z,2.75
2023-03-31T03:46:59.455Z,2.85
2023-03-31T03:49:26.977Z,3.53
2023-03-31T03:51:57.658Z,4.75
2023-03-31T03:54:25.183Z,4.03
2023-03-31T03:56:52.816Z,3.15
2023-03-31T03:59:20.771Z,3.25
2023-03-31T04:01:48.576Z,4.75
2023-03-31T04:04:16.572Z,2.33
2023-03-31T04:06:44.066Z,1.75
2023-03-31T04:09:11.934Z,5.43
2023-03-31T04:11:39.663Z,3.60
2023-03-31T04:14:07.140Z,2.45
2023-03-31T04:16:35.142Z,4.43
2023-03-31T04:19:05.713Z,6.50
2023-03-31T04:21:35.725Z,4.85
2023-03-31T04:24:06.009Z,7.13
2023-03-31T04:26:43.643Z,5.88
2023-03-31T04:29:14.903Z,2.67
2023-03-31T04:31:45.755Z,2.67
2023-03-31T04:34:14.366Z,2.47
2023-03-31T04:36:48.147Z,3.15
2023-03-31T04:39:27.330Z,5.68
2023-03-31T04:41:55.236Z,3.05
2023-03-31T04:44:22.925Z,3.20
2023-03-31T04:46:50.479Z,5.03
2023-03-31T04:49:18.104Z,2.92
2023-03-31T04:51:45.702Z,4.55
2023-03-31T04:54:13.250Z,3.13
2023-03-31T04:56:40.981Z,3.17
2023-03-31T04:59:09.192Z,3.90
2023-03-31T05:01:37.064Z,5.43
2023-03-31T05:04:05.925Z,4.50
2023-03-31T05:06:34.054Z,4.18
2023-03-31T05:09:01.849Z,2.10
2023-03-31T05:11:32.689Z,2.45
2023-03-31T05:14:00.201Z,4.95
2023-03-31T05:16:28.068Z,9.70
2023-03-31T05:18:55.617Z,4.57
2023-03-31T05:21:23.400Z,5.38
2023-03-31T05:23:51.281Z,3.80
2023-03-31T05:26:19.740Z,2.90
2023-03-31T05:28:47.289Z,2.53
2023-03-31T05:31:15.157Z,9.75
2023-03-31T05:33:42.801Z,2.72
2023-03-31T05:36:12.035Z,3.63
2023-03-31T05:38:40.062Z,3.83
2023-03-31T05:41:09.859Z,3.85
2023-03-31T05:43:38.215Z,2.35
2023-03-31T05:46:06.386Z,2.92
2023-03-31T05:48:34.332Z,3.53
2023-03-31T05:51:02.730Z,4.97
2023-03-31T05:53:30.635Z,1.88
2023-03-31T05:55:59.427Z,3.20
2023-03-31T05:58:27.402Z,2.65
2023-03-31T06:01:07.022Z,2.08
2023-03-31T06:03:35.633Z,2.47
2023-03-31T06:06:05.917Z,3.42
2023-03-31T06:08:33.695Z,6.20
2023-03-31T06:11:01.845Z,3.95
2023-03-31T06:13:29.543Z,3.78
2023-03-31T06:15:58.071Z,8.73
2023-03-31T06:18:26.049Z,4.20
2023-03-31T06:20:53.560Z,4.13
2023-03-31T06:23:21.235Z,2.17
2023-03-31T06:25:51.204Z,4.00
2023-03-31T06:28:20.336Z,3.97
2023-03-31T06:30:48.169Z,4.68
2023-03-31T06:33:15.735Z,5.45
2023-03-31T06:35:43.269Z,6.35
2023-03-31T06:38:10.924Z,5.93
2023-03-31T06:40:38.494Z,3.80
2023-03-31T06:43:06.258Z,3.25
2023-03-31T06:45:33.886Z,5.45
2023-03-31T06:48:02.143Z,5.32
2023-03-31T06:50:29.871Z,4.30
2023-03-31T06:52:57.437Z,8.85
2023-03-31T06:55:24.992Z,4.43
2023-03-31T06:57:52.592Z,3.80
2023-03-31T07:00:22.985Z,6.22
2023-03-31T07:02:51.543Z,4.25
2023-03-31T07:05:20.222Z,3.33
2023-03-31T07:07:47.767Z,3.60
2023-03-31T07:10:15.229Z,6.28
2023-03-31T07:12:42.745Z,6.53
2023-03-31T07:15:10.503Z,3.65
2023-03-31T07:17:42.784Z,6.72
2023-03-31T07:20:15.589Z,2.75
2023-03-31T07:22:43.510Z,4.85
2023-03-31T07:25:11.725Z,4.43
2023-03-31T07:27:39.441Z,3.88
2023-03-31T07:30:07.921Z,3.70
2023-03-31T07:32:40.383Z,4.95
2023-03-31T07:35:09.016Z,4.67
2023-03-31T07:37:37.380Z,2.72
2023-03-31T07:40:06.351Z,9.23
2023-03-31T07:42:34.318Z,4.75
2023-03-31T07:45:02.025Z,8.20
2023-03-31T07:47:29.609Z,4.22
2023-03-31T07:49:57.379Z,3.90
2023-03-31T07:52:24.964Z,4.18
2023-03-31T07:54:53.190Z,7.40
2023-03-31T07:57:20.835Z,3.25
2023-03-31T07:59:48.522Z,4.60
2023-03-31T08:02:17.177Z,3.50
2023-03-31T08:04:45.446Z,2.55
2023-03-31T08:07:14.234Z,3.47
2023-03-31T08:09:42.061Z,3.55
2023-03-31T08:12:09.788Z,4.70
2023-03-31T08:14:41.166Z,2.90
2023-03-31T08:17:10.362Z,8.15
2023-03-31T08:19:37.999Z,2.58
2023-03-31T08:22:05.619Z,2.72
2023-03-31T08:24:33.230Z,2.75
2023-03-31T08:27:00.979Z,3.45
2023-03-31T08:29:28.486Z,4.32
2023-03-31T08:31:56.573Z,6.45
2023-03-31T08:34:24.147Z,7.03
2023-03-31T08:36:51.690Z,6.00
2023-03-31T08:39:19.400Z,4.82
2023-03-31T08:41:46.841Z,8.77
2023-03-31T08:44:20.239Z,5.18
2023-03-31T08:49:17.390Z,4.55
2023-03-31T08:51:50.766Z,3.63
2023-03-31T08:56:50.667Z,6.28
2023-03-31T08:59:28.182Z,3.15
2023-03-31T09:01:57.062Z,3.42
2023-03-31T09:04:24.705Z,3.88
2023-03-31T09:06:52.429Z,7.47
2023-03-31T09:09:33.434Z,6.95
2023-03-31T09:12:03.882Z,5.13
2023-03-31T09:14:32.041Z,4.72
2023-03-31T09:17:18.126Z,3.55
2023-03-31T09:19:48.424Z,7.00
2023-03-31T09:22:21.470Z,5.50
2023-03-31T09:24:52.787Z,2.90
2023-03-31T09:27:21.130Z,4.82
2023-03-31T09:30:18.815Z,4.13
2023-03-31T09:32:48.295Z,4.88
2023-03-31T09:35:22.561Z,4.68
2023-03-31T09:37:50.182Z,3.22
2023-03-31T09:40:19.674Z,5.78
2023-03-31T09:42:48.510Z,5.03
2023-03-31T09:45:18.004Z,4.32
2023-03-31T09:47:47.433Z,6.78
2023-03-31T09:50:17.238Z,7.38
2023-03-31T09:52:51.929Z,4.43
2023-03-31T09:55:35.894Z,7.07
2023-03-31T09:58:09.673Z,4.32
2023-03-31T10:00:42.176Z,4.20
2023-03-31T10:03:13.747Z,5.97
2023-03-31T10:05:50.260Z,11.52
2023-03-31T10:08:20.576Z,4.72
2023-03-31T10:10:50.158Z,7.45
2023-03-31T10:13:19.891Z,4.35
2023-03-31T10:15:47.400Z,5.72
2023-03-31T10:18:16.387Z,4.32
2023-03-31T10:20:51.137Z,7.10
2023-03-31T10:23:21.733Z,6.88
2023-03-31T10:25:49.840Z,7.40
2023-03-31T10:28:19.144Z,4.28
2023-03-31T10:31:05.655Z,4.30
2023-03-31T10:33:36.208Z,5.38
2023-03-31T10:36:09.590Z,5.18
2023-03-31T10:41:06.038Z,6.32
2023-03-31T10:43:42.680Z,10.45
2023-03-31T10:46:10.473Z,7.72
2023-03-31T10:48:42.489Z,8.32
2023-03-31T10:51:10.888Z,6.35
2023-03-31T10:53:49.678Z,6.55
2023-03-31T10:56:17.226Z,9.05
2023-03-31T10:59:02.429Z,9.40
2023-03-31T11:01:47.564Z,8.57
2023-03-31T11:04:30.143Z,7.07
2023-03-31T11:07:17.500Z,10.52
2023-03-31T11:10:08.392Z,4.45
2023-03-31T11:12:52.557Z,8.18
2023-03-31T11:15:28.128Z,6.75
2023-03-31T11:17:58.873Z,4.63
2023-03-31T11:20:32.884Z,7.05
2023-03-31T11:23:05.010Z,13.05
2023-03-31T11:25:38.333Z,6.93
2023-03-31T11:28:05.858Z,8.88
2023-03-31T11:30:43.221Z,6.82
2023-03-31T11:33:13.781Z,8.70
2023-03-31T11:36:01.003Z,4.93
2023-03-31T11:38:28.532Z,6.25
2023-03-31T11:41:02.238Z,6.35
2023-03-31T11:43:29.940Z,5.70
2023-03-31T11:46:04.614Z,5.72
2023-03-31T11:48:32.398Z,6.65
2023-03-31T11:51:02.540Z,5.68
2023-03-31T11:53:32.561Z,8.07
2023-03-31T11:56:02.964Z,6.15
2023-03-31T11:58:39.123Z,7.88
2023-03-31T12:01:10.681Z,6.88
2023-03-31T12:03:43.519Z,6.65
2023-03-31T12:06:19.583Z,7.25
2023-03-31T12:08:49.963Z,9.20
2023-03-31T12:11:49.918Z,10.27
2023-03-31T12:14:24.744Z,8.20
2023-03-31T12:17:05.454Z,8.05
2023-03-31T12:19:40.838Z,10.32
2023-03-31T12:22:12.002Z,14.00
2023-03-31T12:24:40.624Z,6.40
2023-03-31T12:27:17.110Z,6.65
2023-03-31T12:29:47.805Z,5.30
2023-03-31T12:32:27.304Z,10.88
2023-03-31T12:35:03.325Z,5.18
2023-03-31T12:37:37.638Z,8.20
2023-03-31T12:40:43.266Z,5.38
2023-03-31T12:43:25.512Z,6.07
2023-03-31T12:46:28.616Z,7.03
2023-03-31T12:49:09.109Z,8.27
2023-03-31T12:51:44.828Z,6.15
2023-03-31T12:54:21.256Z,4.47
2023-03-31T12:57:14.739Z,7.60
2023-03-31T12:59:45.472Z,8.00
2023-03-31T13:02:13.805Z,6.63
2023-03-31T13:04:41.779Z,6.55
2023-03-31T13:07:35.023Z,5.57
2023-03-31T13:10:22.822Z,9.23
2023-03-31T13:13:02.039Z,5.88
2023-03-31T13:15:30.887Z,7.30
2023-03-31T13:18:00.156Z,6.38
2023-03-31T13:20:28.406Z,7.50
2023-03-31T13:23:07.336Z,9.13
2023-03-31T13:25:40.524Z,10.07
2023-03-31T13:30:38.283Z,6.70
2023-03-31T13:33:18.470Z,6.65
2023-03-31T13:35:50.918Z,5.80
2023-03-31T13:38:18.599Z,6.60
2023-03-31T13:40:55.909Z,6.40
2023-03-31T13:43:35.455Z,8.02
2023-03-31T13:46:03.001Z,6.05
2023-03-31T13:48:49.117Z,7.25
2023-03-31T13:51:32.359Z,5.47
2023-03-31T13:54:08.389Z,5.15
2023-03-31T13:56:54.611Z,8.55
2023-03-31T13:59:30.671Z,9.05
2023-03-31T14:02:01.063Z,10.63
2023-03-31T14:04:41.080Z,5.72
2023-03-31T14:07:10.737Z,7.13
2023-03-31T14:09:42.105Z,10.55
2023-03-31T14:12:32.050Z,9.18
2023-03-31T14:15:01.603Z,6.32
2023-03-31T14:17:37.187Z,10.05
2023-03-31T14:20:11.774Z,10.43
2023-03-31T14:22:47.786Z,5.32
2023-03-31T14:25:21.532Z,11.07
2023-03-31T14:28:08.291Z,8.15
2023-03-31T14:30:54.449Z,6.43
2023-03-31T14:33:28.388Z,8.27
2023-03-31T14:36:20.028Z,14.43
2023-03-31T14:38:47.690Z,14.25
2023-03-31T14:41:30.145Z,5.78
2023-03-31T14:43:58.950Z,7.45
2023-03-31T14:46:26.642Z,6.50
2023-03-31T14:48:54.259Z,6.43
2023-03-31T14:51:32.354Z,7.55
2023-03-31T14:54:00.479Z,5.25
2023-03-31T14:56:39.523Z,12.40
2023-03-31T14:59:08.485Z,5.97
2023-03-31T15:01:40.710Z,6.20
2023-03-31T15:04:12.846Z,8.82
2023-03-31T15:06:43.390Z,7.00
2023-03-31T15:09:13.931Z,7.13
2023-03-31T15:11:41.425Z,7.13
2023-03-31T15:14:09.949Z,10.02
2023-03-31T15:16:42.931Z,6.30
2023-03-31T15:19:21.798Z,10.88
2023-03-31T15:21:59.104Z,7.80
2023-03-31T15:24:32.082Z,5.95
2023-03-31T15:26:59.769Z,9.05
2023-03-31T15:29:30.393Z,5.60
2023-03-31T15:31:58.992Z,14.93
2023-03-31T15:34:28.834Z,7.28
2023-03-31T15:36:59.565Z,9.13
2023-03-31T15:39:28.096Z,5.15
2023-03-31T15:41:57.241Z,6.75
2023-03-31T15:44:40.137Z,6.45
2023-03-31T15:47:10.212Z,8.38
2023-03-31T15:49:37.686Z,8.40
2023-03-31T15:52:05.208Z,5.80
2023-03-31T15:54:40.948Z,8.95
2023-03-31T15:57:09.702Z,5.75
2023-03-31T15:59:56.882Z,4.35
2023-03-31T16:02:27.175Z,11.27
2023-03-31T16:04:56.993Z,7.32
2023-03-31T16:07:27.792Z,7.80
2023-03-31T16:09:58.394Z,8.02
2023-03-31T16:12:35.281Z,7.55
2023-03-31T16:15:09.236Z,6.85
2023-03-31T16:17:43.834Z,7.43
2023-03-31T16:20:17.803Z,7.32
2023-03-31T16:22:46.772Z,12.82
2023-03-31T16:25:18.626Z,5.80
2023-03-31T16:27:48.015Z,7.03
2023-03-31T16:30:19.974Z,4.97
2023-03-31T16:33:02.286Z,4.82
2023-03-31T16:35:34.691Z,5.82
2023-03-31T16:38:05.134Z,4.93
2023-03-31T16:40:36.512Z,7.13
2023-03-31T16:43:17.680Z,7.57
2023-03-31T16:45:48.931Z,6.80
2023-03-31T16:48:18.797Z,10.63
2023-03-31T16:50:46.823Z,6.50
2023-03-31T16:53:14.985Z,6.38
2023-03-31T16:55:42.809Z,8.30
2023-03-31T16:58:10.451Z,5.30
2023-03-31T17:00:37.905Z,5.30
2023-03-31T17:03:05.526Z,5.28
2023-03-31T17:05:34.496Z,8.43
2023-03-31T17:08:02.470Z,6.25
2023-03-31T17:10:29.947Z,6.32
2023-03-31T17:12:57.410Z,5.07
2023-03-31T17:15:28.118Z,7.72
2023-03-31T17:17:55.684Z,5.15
2023-03-31T17:20:24.061Z,7.45
2023-03-31T17:22:52.123Z,6.22
2023-03-31T17:25:19.833Z,5.72
2023-03-31T17:27:47.320Z,4.95
2023-03-31T17:30:14.874Z,15.88
2023-03-31T17:32:43.315Z,5.70
2023-03-31T17:35:11.992Z,8.40
2023-03-31T17:37:39.516Z,5.70
2023-03-31T17:40:08.146Z,8.85
2023-03-31T17:42:35.870Z,9.02
2023-03-31T17:45:03.431Z,6.47
2023-03-31T17:47:31.858Z,10.65
2023-03-31T17:49:59.410Z,6.75
2023-03-31T17:52:27.106Z,5.10
2023-03-31T17:54:58.509Z,3.60
2023-03-31T17:57:26.604Z,5.63
2023-03-31T17:59:54.458Z,7.15
2023-03-31T18:02:22.020Z,6.32
2023-03-31T18:04:49.615Z,8.18
2023-03-31T18:07:19.054Z,5.28
2023-03-31T18:09:46.641Z,3.97
2023-03-31T18:12:14.332Z,4.55
2023-03-31T18:14:41.837Z,6.65
2023-03-31T18:17:12.449Z,4.45
2023-03-31T18:19:39.948Z,5.53
2023-03-31T18:22:07.437Z,4.28
2023-03-31T18:24:36.753Z,8.73
2023-03-31T18:27:04.319Z,7.20
2023-03-31T18:29:32.123Z,5.63
2023-03-31T18:32:00.165Z,5.85
2023-03-31T18:34:28.009Z,7.53
2023-03-31T18:36:58.863Z,6.22
2023-03-31T18:39:26.464Z,7.47
2023-03-31T18:41:54.858Z,9.40
2023-03-31T18:44:22.679Z,6.82
2023-03-31T18:46:50.584Z,8.52
2023-03-31T18:49:20.672Z,4.75
2023-03-31T18:51:48.478Z,5.35
2023-03-31T18:54:16.334Z,5.30
2023-03-31T18:56:44.017Z,7.63
2023-03-31T18:59:13.520Z,7.82
2023-03-31T19:01:41.501Z,6.25
2023-03-31T19:04:09.452Z,6.07
2023-03-31T19:06:37.195Z,5.82
2023-03-31T19:09:05.621Z,5.88
2023-03-31T19:11:33.414Z,5.10
2023-03-31T19:14:03.973Z,9.25
2023-03-31T19:16:31.778Z,5.38
2023-03-31T19:18:59.903Z,8.38
2023-03-31T19:21:27.714Z,6.82
2023-03-31T19:23:55.376Z,7.13
2023-03-31T19:26:28.258Z,8.07
2023-03-31T19:28:56.077Z,5.75
2023-03-31T19:31:23.745Z,8.18
2023-03-31T19:33:51.426Z,5.05
2023-03-31T19:36:19.098Z,8.85
2023-03-31T19:38:46.672Z,5.63
2023-03-31T19:41:14.916Z,6.97
2023-03-31T19:43:42.545Z,6.28
2023-03-31T19:46:10.533Z,10.50
2023-03-31T19:48:38.331Z,8.80
2023-03-31T19:51:07.930Z,9.20
2023-03-31T19:53:37.445Z,11.43
2023-03-31T19:56:06.383Z,7.78
2023-03-31T19:58:36.805Z,9.60
2023-03-31T20:01:06.160Z,11.77
2023-03-31T20:03:34.205Z,10.63
2023-03-31T20:06:08.984Z,10.57
2023-03-31T20:08:37.153Z,9.38
2023-03-31T20:11:06.124Z,12.45
2023-03-31T20:13:36.567Z,14.60
2023-03-31T20:16:14.264Z,14.30
2023-03-31T20:18:44.398Z,11.07
2023-03-31T20:21:13.827Z,18.08
2023-03-31T20:23:41.691Z,17.73
2023-03-31T20:26:10.786Z,19.23
2023-03-31T20:28:38.765Z,11.25
2023-03-31T20:31:22.776Z,16.33
2023-03-31T20:33:51.807Z,18.63
2023-03-31T20:36:21.339Z,15.82
2023-03-31T20:38:51.795Z,18.02
2023-03-31T20:41:22.242Z,15.05
2023-03-31T20:43:51.400Z,14.73
2023-03-31T20:46:19.372Z,12.13
2023-03-31T20:48:52.150Z,13.57
2023-03-31T20:51:21.265Z,14.38
2023-03-31T20:53:49.918Z,16.33
2023-03-31T20:56:19.326Z,13.73
2023-03-31T20:58:47.349Z,15.63
2023-03-31T21:01:15.382Z,18.25
2023-03-31T21:03:43.175Z,13.32
2023-03-31T21:06:12.196Z,17.85
2023-03-31T21:08:40.423Z,14.43
2023-03-31T21:11:08.440Z,12.32
2023-03-31T21:13:36.470Z,13.38
2023-03-31T21:16:05.165Z,11.30
2023-03-31T21:18:33.487Z,20.05
2023-03-31T21:21:08.695Z,11.85
2023-03-31T21:23:36.591Z,16.25
2023-03-31T21:26:05.250Z,15.90
2023-03-31T21:28:34.695Z,17.25
2023-03-31T21:31:03.682Z,14.02
2023-03-31T21:33:32.110Z,13.27
2023-03-31T21:35:59.754Z,11.68
2023-03-31T21:38:30.496Z,10.02
2023-03-31T21:40:58.168Z,10.75
2023-03-31T21:43:26.700Z,10.07
2023-03-31T21:45:58.418Z,14.02
2023-03-31T21:48:27.166Z,14.52
2023-03-31T21:50:55.644Z,13.40
2023-03-31T21:53:23.365Z,13.43
2023-03-31T21:55:53.406Z,14.18
2023-03-31T21:58:21.141Z,12.45
2023-03-31T22:00:49.077Z,11.85
2023-03-31T22:03:27.105Z,13.15
2023-03-31T22:05:57.660Z,14.57
2023-03-31T22:08:27.590Z,14.63
2023-03-31T22:10:55.574Z,13.13
2023-03-31T22:13:23.606Z,16.40
2023-03-31T22:15:54.237Z,17.00
2023-03-31T22:18:23.822Z,13.75
2023-03-31T22:20:51.877Z,13.60
2023-03-31T22:23:21.533Z,15.57
2023-03-31T22:25:49.305Z,14.45
2023-03-31T22:28:19.618Z,18.13
2023-03-31T22:30:47.286Z,14.07
2023-03-31T22:33:14.867Z,13.70
2023-03-31T22:35:42.484Z,16.70
2023-03-31T22:38:12.527Z,14.60
2023-03-31T22:40:40.247Z,13.85
2023-03-31T22:43:07.816Z,12.85
2023-03-31T22:45:41.656Z,9.73
2023-03-31T22:48:10.543Z,10.10
2023-03-31T22:50:38.244Z,10.57
2023-03-31T22:53:06.377Z,8.18
2023-03-31T22:55:34.294Z,11.10
2023-03-31T22:58:02.053Z,10.00
2023-03-31T23:00:29.654Z,9.23
2023-03-31T23:02:57.197Z,10.85
2023-03-31T23:05:24.941Z,15.55
2023-03-31T23:07:52.437Z,8.30
2023-03-31T23:10:20.492Z,11.30
2023-03-31T23:12:50.909Z,10.30
2023-03-31T23:15:18.781Z,8.45
2023-03-31T23:17:46.264Z,11.82
2023-03-31T23:20:14.623Z,11.30
2023-03-31T23:22:42.190Z,10.50
2023-03-31T23:25:09.853Z,12.27
2023-03-31T23:27:37.328Z,10.40
2023-03-31T23:30:05.455Z,12.43
2023-03-31T23:32:32.985Z,13.52
2023-03-31T23:35:00.491Z,11.82
2023-03-31T23:37:28.338Z,12.50
2023-03-31T23:39:56.578Z,8.20
2023-03-31T23:42:24.229Z,9.38
2023-03-31T23:44:51.907Z,12.15
2023-03-31T23:47:19.489Z,13.10
2023-03-31T23:49:47.356Z,14.45
2023-03-31T23:52:14.918Z,12.95
2023-03-31T23:54:42.893Z,10.80
2023-03-31T23:57:10.407Z,8.43
2023-03-31T23:59:37.996Z,9.45
